createdAt,value
2022-11-22T00:01:33.553Z,93.71
2022-11-22T00:04:01.537Z,93.03
2022-11-22T00:06:29.494Z,91.31
2022-11-22T00:08:57.384Z,90.71
2022-11-22T00:11:25.287Z,91.08
2022-11-22T00:13:53.220Z,90.74
2022-11-22T00:16:21.156Z,90.86
2022-11-22T00:18:49.060Z,90.90
2022-11-22T00:21:17.073Z,90.90
2022-11-22T00:23:44.998Z,91.26
2022-11-22T00:26:12.933Z,91.15
2022-11-22T00:28:40.950Z,91.31
2022-11-22T00:31:08.948Z,91.36
2022-11-22T00:33:36.843Z,91.33
2022-11-22T00:36:05.011Z,91.82
2022-11-22T00:38:33.073Z,91.78
2022-11-22T00:41:01.017Z,91.76
2022-11-22T00:43:28.959Z,91.68
2022-11-22T00:45:56.937Z,91.61
2022-11-22T00:48:24.870Z,91.71
2022-11-22T00:50:52.889Z,91.81
2022-11-22T00:53:20.781Z,92.21
2022-11-22T00:55:49.250Z,92.02
2022-11-22T00:58:17.342Z,92.27
2022-11-22T01:00:45.383Z,92.50
2022-11-22T01:03:13.833Z,92.58
2022-11-22T01:05:41.803Z,92.65
2022-11-22T01:08:09.831Z,92.82
2022-11-22T01:10:38.169Z,92.77
2022-11-22T01:13:06.370Z,92.75
2022-11-22T01:15:34.282Z,92.72
2022-11-22T01:18:02.248Z,92.68
2022-11-22T01:20:30.960Z,92.70
2022-11-22T01:22:58.901Z,92.29
2022-11-22T01:25:27.248Z,92.58
2022-11-22T01:27:55.351Z,92.55
2022-11-22T01:30:23.271Z,92.75
2022-11-22T01:32:52.597Z,92.74
2022-11-22T01:35:20.470Z,92.62
2022-11-22T01:37:48.400Z,92.75
2022-11-22T01:40:16.357Z,92.62
2022-11-22T01:42:56.974Z,92.75
2022-11-22T01:45:30.934Z,93.05
2022-11-22T01:48:01.111Z,92.94
2022-11-22T01:50:33.108Z,92.93
2022-11-22T01:53:07.171Z,92.95
2022-11-22T01:55:36.068Z,93.03
2022-11-22T01:58:04.486Z,93.16
2022-11-22T02:00:32.463Z,93.20
2022-11-22T02:03:04.008Z,93.23
2022-11-22T02:05:35.442Z,93.12
2022-11-22T02:12:36.394Z,92.01
2022-11-22T02:15:04.720Z,92.57
2022-11-22T02:17:32.623Z,92.68
2022-11-22T02:20:00.563Z,92.69
2022-11-22T02:22:40.579Z,92.66
2022-11-22T02:25:33.125Z,92.54
2022-11-22T02:28:04.530Z,92.62
2022-11-22T02:30:32.868Z,92.46
2022-11-22T02:33:00.816Z,92.47
2022-11-22T02:35:30.144Z,92.61
2022-11-22T02:38:21.212Z,92.67
2022-11-22T02:41:11.670Z,92.39
2022-11-22T02:43:44.320Z,92.51
2022-11-22T02:46:21.351Z,92.48
2022-11-22T02:48:50.065Z,92.32
2022-11-22T02:51:20.173Z,92.46
2022-11-22T02:53:50.128Z,92.56
2022-11-22T02:56:18.640Z,92.79
2022-11-22T02:58:46.639Z,92.79
2022-11-22T03:01:14.650Z,92.60
2022-11-22T03:03:42.670Z,92.74
2022-11-22T03:06:10.621Z,92.59
2022-11-22T03:08:38.596Z,92.34
2022-11-22T03:11:06.540Z,92.48
2022-11-22T03:13:34.420Z,92.23
2022-11-22T03:16:02.368Z,92.27
2022-11-22T03:18:30.304Z,92.48
2022-11-22T03:21:02.860Z,92.64
2022-11-22T03:23:31.219Z,92.57
2022-11-22T03:25:59.349Z,92.63
2022-11-22T03:28:27.248Z,92.79
2022-11-22T03:30:55.235Z,93.16
2022-11-22T03:33:23.152Z,92.63
2022-11-22T03:35:51.049Z,92.79
2022-11-22T03:38:18.963Z,93.19
2022-11-22T03:40:47.099Z,93.41
2022-11-22T03:43:15.039Z,93.69
2022-11-22T03:45:47.112Z,93.56
2022-11-22T03:48:15.329Z,93.58
2022-11-22T03:50:43.373Z,93.53
2022-11-22T03:53:11.892Z,93.75
2022-11-22T03:55:40.391Z,93.39
2022-11-22T03:58:08.601Z,93.74
2022-11-22T04:00:36.584Z,93.60
2022-11-22T04:03:04.511Z,93.79
2022-11-22T04:05:32.443Z,93.99
2022-11-22T04:08:00.418Z,94.35
2022-11-22T04:10:28.545Z,94.65
2022-11-22T04:12:58.385Z,94.88
2022-11-22T04:15:27.125Z,95.43
2022-11-22T04:17:55.189Z,95.18
2022-11-22T04:20:47.633Z,95.25
2022-11-22T04:23:21.588Z,95.30
2022-11-22T04:25:51.856Z,95.34
2022-11-22T04:28:35.200Z,95.51
2022-11-22T04:32:23.868Z,95.61
2022-11-22T04:34:51.785Z,95.40
2022-11-22T04:37:19.713Z,95.56
2022-11-22T04:39:47.557Z,95.97
2022-11-22T04:42:33.784Z,95.79
2022-11-22T04:45:01.972Z,95.96
2022-11-22T04:47:50.432Z,95.91
2022-11-22T04:50:37.154Z,95.79
2022-11-22T04:53:05.156Z,95.84
2022-11-22T04:55:33.093Z,95.67
2022-11-22T04:58:01.488Z,95.79
2022-11-22T05:00:30.238Z,95.73
2022-11-22T05:02:58.893Z,95.86
2022-11-22T05:05:27.211Z,96.16
2022-11-22T05:08:48.193Z,96.33
2022-11-22T05:11:16.133Z,96.70
2022-11-22T05:13:44.148Z,96.83
2022-11-22T05:16:15.305Z,96.55
2022-11-22T05:18:43.588Z,96.62
2022-11-22T05:21:14.188Z,96.49
2022-11-22T05:23:57.211Z,96.59
2022-11-22T05:26:31.558Z,96.79
2022-11-22T05:29:04.883Z,96.98
2022-11-22T05:31:34.538Z,96.91
2022-11-22T05:34:02.561Z,97.11
2022-11-22T05:36:33.131Z,97.63
2022-11-22T05:39:02.031Z,97.62
2022-11-22T05:41:30.045Z,97.79
2022-11-22T05:43:58.157Z,97.92
2022-11-22T05:46:28.751Z,98.29
2022-11-22T05:48:58.494Z,98.22
2022-11-22T05:51:34.741Z,97.97
2022-11-22T05:54:03.453Z,97.64
2022-11-22T05:56:31.439Z,97.57
2022-11-22T05:58:59.392Z,97.81
2022-11-22T06:01:27.425Z,98.01
2022-11-22T06:03:55.527Z,98.24
2022-11-22T06:06:23.460Z,98.22
2022-11-22T06:08:51.752Z,98.23
2022-11-22T06:11:25.338Z,98.10
2022-11-22T06:13:59.601Z,98.21
2022-11-22T06:16:27.594Z,98.35
2022-11-22T06:18:56.277Z,98.12
2022-11-22T06:21:25.739Z,98.06
2022-11-22T06:23:54.948Z,98.06
2022-11-22T06:26:24.377Z,98.04
2022-11-22T06:28:53.721Z,98.12
2022-11-22T06:31:24.076Z,98.29
2022-11-22T06:33:54.575Z,98.25
2022-11-22T06:36:25.391Z,98.24
2022-11-22T06:38:53.494Z,98.14
2022-11-22T06:41:24.501Z,98.26
2022-11-22T06:43:53.945Z,98.34
2022-11-22T06:46:23.606Z,98.44
2022-11-22T06:48:52.401Z,98.53
2022-11-22T06:51:23.540Z,98.50
2022-11-22T06:53:52.422Z,98.74
2022-11-22T06:56:27.069Z,98.92
2022-11-22T06:58:55.711Z,98.84
2022-11-22T07:01:29.202Z,98.87
2022-11-22T07:03:58.683Z,99.07
2022-11-22T07:06:31.918Z,98.94
2022-11-22T07:09:01.603Z,99.11
2022-11-22T07:11:31.326Z,99.03
2022-11-22T07:14:07.130Z,99.20
2022-11-22T07:16:37.575Z,99.32
2022-11-22T07:19:06.698Z,99.42
2022-11-22T07:21:35.045Z,99.48
2022-11-22T07:24:04.929Z,99.64
2022-11-22T07:26:32.863Z,99.60
2022-11-22T07:29:00.797Z,99.70
2022-11-22T07:31:28.850Z,99.71
2022-11-22T07:34:01.044Z,99.71
2022-11-22T07:36:30.419Z,99.70
2022-11-22T07:38:58.608Z,99.65
2022-11-22T07:41:26.700Z,99.61
2022-11-22T07:43:54.835Z,99.87
2022-11-22T07:46:34.219Z,99.76
2022-11-22T07:49:02.803Z,99.81
2022-11-22T07:51:31.132Z,99.48
2022-11-22T07:53:59.166Z,99.75
2022-11-22T07:56:27.256Z,99.46
2022-11-22T07:58:55.154Z,99.39
2022-11-22T08:01:23.816Z,99.50
2022-11-22T08:03:51.854Z,99.31
2022-11-22T08:06:19.763Z,99.34
2022-11-22T08:08:47.755Z,99.08
2022-11-22T08:11:15.852Z,99.19
2022-11-22T08:13:44.707Z,99.02
2022-11-22T08:16:15.544Z,98.92
2022-11-22T08:18:49.107Z,98.84
2022-11-22T08:21:19.101Z,98.74
2022-11-22T08:23:48.061Z,98.91
2022-11-22T08:26:17.606Z,98.38
2022-11-22T08:28:45.558Z,98.22
2022-11-22T08:31:18.086Z,98.31
2022-11-22T08:33:46.586Z,98.12
2022-11-22T08:36:14.656Z,98.18
2022-11-22T08:38:42.749Z,98.12
2022-11-22T08:41:11.694Z,98.46
2022-11-22T08:43:39.861Z,97.62
2022-11-22T08:46:07.834Z,97.47
2022-11-22T08:48:36.947Z,97.63
2022-11-22T08:51:08.307Z,97.14
2022-11-22T08:53:41.584Z,96.59
2022-11-22T08:56:13.262Z,96.66
2022-11-22T08:58:41.958Z,95.90
2022-11-22T09:01:13.596Z,96.27
2022-11-22T09:03:42.762Z,95.66
2022-11-22T09:09:43.381Z,95.32
2022-11-22T09:11:49.703Z,94.75
2022-11-22T09:14:17.643Z,94.08
2022-11-22T09:16:45.718Z,94.31
2022-11-22T09:19:13.804Z,94.82
2022-11-22T09:21:41.727Z,93.91
2022-11-22T09:24:09.638Z,93.46
2022-11-22T09:26:37.632Z,92.92
2022-11-22T09:29:05.528Z,93.04
2022-11-22T09:31:33.491Z,92.32
2022-11-22T09:34:01.485Z,91.51
2022-11-22T09:36:29.607Z,91.84
2022-11-22T09:38:57.685Z,91.45
2022-11-22T09:41:46.793Z,90.90
2022-11-22T09:44:36.273Z,91.20
2022-11-22T09:47:15.477Z,91.23
2022-11-22T09:50:10.856Z,90.24
2022-11-22T09:52:46.731Z,89.63
2022-11-22T09:55:24.210Z,89.22
2022-11-22T09:58:03.848Z,88.73
2022-11-22T10:00:32.246Z,88.73
2022-11-22T10:03:05.975Z,88.92
2022-11-22T10:05:50.158Z,88.70
2022-11-22T10:08:35.431Z,89.00
2022-11-22T10:11:13.664Z,87.51
2022-11-22T10:13:50.531Z,87.12
2022-11-22T10:16:26.433Z,87.90
2022-11-22T10:19:10.441Z,88.16
2022-11-22T10:21:38.379Z,88.25
2022-11-22T10:24:06.895Z,86.85
2022-11-22T10:26:37.375Z,86.99
2022-11-22T10:29:17.607Z,87.52
2022-11-22T10:32:10.262Z,87.38
2022-11-22T10:34:41.198Z,86.49
2022-11-22T10:37:44.580Z,86.37
2022-11-22T10:40:15.229Z,85.63
2022-11-22T10:42:52.244Z,85.70
2022-11-22T10:46:11.171Z,86.32
2022-11-22T10:48:50.734Z,85.50
2022-11-22T10:51:44.339Z,86.16
2022-11-22T10:54:52.800Z,86.05
2022-11-22T10:57:46.870Z,84.72
2022-11-22T11:00:22.854Z,85.28
2022-11-22T11:03:13.177Z,85.39
2022-11-22T11:09:54.939Z,83.98
2022-11-22T11:11:46.591Z,82.44
2022-11-22T11:14:35.948Z,80.10
2022-11-22T11:17:06.068Z,79.78
2022-11-22T11:19:38.920Z,80.80
2022-11-22T11:22:09.592Z,78.50
2022-11-22T11:24:40.721Z,75.14
2022-11-22T11:27:11.538Z,75.89
2022-11-22T11:29:39.420Z,75.03
2022-11-22T11:32:21.080Z,73.38
2022-11-22T11:34:57.751Z,70.25
2022-11-22T11:37:32.974Z,69.68
2022-11-22T11:40:00.994Z,67.60
2022-11-22T11:42:35.779Z,66.16
2022-11-22T11:45:18.987Z,65.04
2022-11-22T11:47:46.893Z,62.62
2022-11-22T11:50:24.527Z,63.11
2022-11-22T11:53:03.330Z,62.18
2022-11-22T11:55:35.534Z,61.62
2022-11-22T11:58:17.803Z,59.96
2022-11-22T12:00:46.046Z,60.39
2022-11-22T12:03:19.083Z,58.97
2022-11-22T12:05:47.124Z,58.03
2022-11-22T12:08:32.264Z,55.57
2022-11-22T12:11:06.526Z,54.28
2022-11-22T12:14:12.377Z,55.76
2022-11-22T12:16:40.030Z,52.41
2022-11-22T12:19:25.248Z,54.34
2022-11-22T12:22:03.891Z,51.98
2022-11-22T12:25:16.953Z,50.72
2022-11-22T12:27:42.449Z,51.39
2022-11-22T12:30:14.556Z,51.33
2022-11-22T12:32:59.425Z,49.47
2022-11-22T12:35:29.899Z,49.10
2022-11-22T12:38:11.124Z,49.39
2022-11-22T12:40:44.471Z,51.37
2022-11-22T12:43:24.711Z,52.40
2022-11-22T12:45:57.969Z,53.21
2022-11-22T12:48:34.788Z,53.92
2022-11-22T12:51:27.254Z,54.71
2022-11-22T12:54:02.903Z,55.63
2022-11-22T12:56:56.028Z,56.53
2022-11-22T12:59:37.464Z,57.26
2022-11-22T13:02:24.037Z,57.95
2022-11-22T13:05:01.831Z,58.70
2022-11-22T13:07:36.091Z,58.92
2022-11-22T13:10:20.183Z,59.87
2022-11-22T13:12:49.459Z,60.75
2022-11-22T13:15:27.297Z,61.14
2022-11-22T13:17:55.911Z,61.21
2022-11-22T13:20:29.276Z,63.15
2022-11-22T13:23:28.721Z,64.08
2022-11-22T13:26:15.155Z,64.09
2022-11-22T13:28:44.865Z,64.14
2022-11-22T13:31:17.248Z,65.02
2022-11-22T13:34:00.279Z,65.61
2022-11-22T13:36:28.362Z,66.14
2022-11-22T13:39:02.591Z,68.13
2022-11-22T13:41:38.430Z,69.33
2022-11-22T13:44:36.325Z,69.37
2022-11-22T13:47:25.123Z,69.19
2022-11-22T13:49:54.097Z,69.04
2022-11-22T13:52:22.315Z,68.96
2022-11-22T13:54:52.749Z,69.14
2022-11-22T13:57:36.094Z,70.10
2022-11-22T14:00:16.364Z,70.02
2022-11-22T14:03:29.416Z,70.72
2022-11-22T14:05:58.317Z,70.26
2022-11-22T14:08:42.751Z,71.32
2022-11-22T14:11:10.601Z,71.05
2022-11-22T14:13:52.423Z,71.09
2022-11-22T14:16:40.015Z,70.91
2022-11-22T14:19:22.908Z,71.02
2022-11-22T14:22:12.576Z,70.78
2022-11-22T14:24:58.741Z,70.82
2022-11-22T14:27:45.454Z,70.77
2022-11-22T14:30:18.680Z,70.82
2022-11-22T14:33:00.389Z,71.50
2022-11-22T14:35:34.434Z,71.68
2022-11-22T14:38:28.541Z,71.77
2022-11-22T14:41:27.821Z,71.82
2022-11-22T14:44:02.641Z,72.04
2022-11-22T14:47:02.753Z,72.87
2022-11-22T14:49:47.891Z,72.80
2022-11-22T14:52:23.496Z,73.51
2022-11-22T14:55:01.056Z,73.89
2022-11-22T14:57:32.803Z,73.86
2022-11-22T15:00:19.315Z,73.90
2022-11-22T15:03:25.077Z,73.71
2022-11-22T15:09:10.958Z,74.18
2022-11-22T15:09:39.340Z,74.65
2022-11-22T15:12:18.045Z,74.53
2022-11-22T15:57:28.320Z,75.63
2022-11-22T15:59:57.598Z,75.65
2022-11-22T16:02:30.010Z,75.95
2022-11-22T16:06:10.354Z,75.79
2022-11-22T16:07:57.452Z,75.81
2022-11-22T16:10:37.750Z,75.92
2022-11-22T16:13:24.402Z,75.89
2022-11-22T16:16:10.688Z,75.94
2022-11-22T16:18:40.271Z,75.64
2022-11-22T16:21:11.471Z,75.95
2022-11-22T16:23:40.990Z,76.24
2022-11-22T16:26:21.897Z,76.89
2022-11-22T16:28:51.596Z,76.73
2022-11-22T16:31:29.029Z,76.79
2022-11-22T16:33:58.367Z,76.77
2022-11-22T16:36:29.693Z,76.97
2022-11-22T16:39:00.867Z,77.14
2022-11-22T16:41:29.603Z,77.41
2022-11-22T16:44:04.450Z,77.60
2022-11-22T16:46:32.461Z,77.43
2022-11-22T16:49:00.875Z,77.34
2022-11-22T16:51:30.166Z,77.56
2022-11-22T16:54:00.733Z,78.00
2022-11-22T16:56:32.061Z,78.14
2022-11-22T16:59:00.125Z,77.89
2022-11-22T17:01:33.259Z,77.93
2022-11-22T17:04:02.895Z,77.92
2022-11-22T17:06:32.022Z,77.78
2022-11-22T17:09:01.010Z,77.88
2022-11-22T17:11:32.418Z,78.16
2022-11-22T17:14:01.087Z,78.28
2022-11-22T17:16:29.344Z,78.51
2022-11-22T17:18:57.260Z,78.44
2022-11-22T17:21:37.265Z,78.37
2022-11-22T17:24:13.295Z,78.38
2022-11-22T17:26:41.232Z,78.61
2022-11-22T17:29:18.402Z,78.52
2022-11-22T17:31:57.154Z,78.74
2022-11-22T17:34:25.141Z,78.84
2022-11-22T17:36:53.146Z,78.96
2022-11-22T17:39:21.108Z,78.86
2022-11-22T17:41:49.567Z,78.74
2022-11-22T17:44:18.368Z,79.02
2022-11-22T17:51:26.150Z,79.16
2022-11-22T17:53:55.008Z,79.01
2022-11-22T17:56:22.853Z,78.93
2022-11-22T17:58:50.974Z,79.20
2022-11-22T18:01:22.877Z,79.24
2022-11-22T18:03:51.638Z,79.32
2022-11-22T18:06:23.519Z,79.45
2022-11-22T18:08:54.093Z,79.69
2022-11-22T18:11:22.032Z,79.23
2022-11-22T18:13:49.918Z,79.40
2022-11-22T18:16:18.616Z,79.41
2022-11-22T18:19:02.031Z,79.41
2022-11-22T18:21:32.505Z,79.64
2022-11-22T18:24:01.440Z,80.12
2022-11-22T18:26:44.914Z,80.44
2022-11-22T18:32:03.027Z,80.41
2022-11-22T18:34:33.692Z,80.54
2022-11-22T18:37:04.574Z,80.41
2022-11-22T18:39:36.582Z,80.76
2022-11-22T18:42:07.123Z,80.55
2022-11-22T18:44:35.239Z,80.71
2022-11-22T18:47:05.526Z,80.68
2022-11-22T18:49:33.970Z,80.93
2022-11-22T18:52:04.928Z,80.99
2022-11-22T18:54:35.996Z,81.21
2022-11-22T18:57:04.147Z,80.79
2022-11-22T18:59:32.457Z,80.92
2022-11-22T19:02:00.448Z,81.31
2022-11-22T19:04:28.942Z,81.30
2022-11-22T19:07:04.512Z,81.45
2022-11-22T19:09:35.661Z,81.18
2022-11-22T19:12:08.609Z,81.24
2022-11-22T19:14:36.620Z,81.40
2022-11-22T19:17:05.488Z,81.44
2022-11-22T19:19:33.497Z,81.60
2022-11-22T19:22:02.594Z,81.70
2022-11-22T19:24:33.891Z,81.70
2022-11-22T19:27:04.765Z,81.76
2022-11-22T19:29:33.226Z,81.58
2022-11-22T19:32:01.671Z,81.86
2022-11-22T19:34:30.040Z,81.87
2022-11-22T19:37:00.381Z,81.34
2022-11-22T19:39:28.693Z,81.80
2022-11-22T19:41:56.915Z,81.72
2022-11-22T19:44:24.889Z,81.97
2022-11-22T19:46:52.815Z,81.71
2022-11-22T19:49:20.737Z,81.96
2022-11-22T19:51:48.770Z,81.81
2022-11-22T19:54:17.747Z,81.96
2022-11-22T19:56:45.783Z,82.05
2022-11-22T19:59:16.174Z,82.09
2022-11-22T20:01:48.742Z,81.82
2022-11-22T20:04:16.893Z,82.24
2022-11-22T20:06:50.382Z,82.21
2022-11-22T20:09:20.444Z,82.23
2022-11-22T20:11:48.418Z,82.11
2022-11-22T20:14:17.133Z,82.59
2022-11-22T20:16:45.183Z,83.01
2022-11-22T20:19:13.166Z,83.06
2022-11-22T20:21:41.517Z,83.20
2022-11-22T20:24:09.842Z,83.10
2022-11-22T20:26:37.838Z,83.45
2022-11-22T20:29:08.240Z,83.22
2022-11-22T20:31:37.985Z,83.40
2022-11-22T20:34:06.111Z,83.50
2022-11-22T20:36:35.299Z,83.69
2022-11-22T20:39:09.834Z,83.75
2022-11-22T20:41:40.137Z,83.55
2022-11-22T20:44:13.119Z,84.02
2022-11-22T20:46:41.722Z,83.99
2022-11-22T20:49:09.735Z,83.94
2022-11-22T20:51:39.952Z,83.81
2022-11-22T20:54:08.996Z,83.61
2022-11-22T20:56:38.136Z,83.42
2022-11-22T20:59:06.205Z,83.77
2022-11-22T21:01:34.379Z,84.00
2022-11-22T21:04:05.776Z,84.12
2022-11-22T21:06:36.641Z,84.24
2022-11-22T21:09:04.851Z,84.11
2022-11-22T21:11:32.828Z,83.96
2022-11-22T21:14:00.883Z,83.74
2022-11-22T21:16:29.893Z,84.02
2022-11-22T21:19:04.884Z,84.10
2022-11-22T21:21:35.895Z,84.09
2022-11-22T21:24:05.543Z,83.79
2022-11-22T21:26:35.814Z,83.96
2022-11-22T21:29:05.223Z,83.70
2022-11-22T21:31:33.158Z,83.76
2022-11-22T21:34:01.120Z,83.89
2022-11-22T21:36:29.075Z,84.06
2022-11-22T21:38:56.974Z,84.17
2022-11-22T21:41:41.209Z,84.47
2022-11-22T21:46:53.306Z,84.31
2022-11-22T21:49:21.537Z,84.32
2022-11-22T21:51:49.583Z,84.51
2022-11-22T21:54:17.733Z,84.66
2022-11-22T21:56:45.609Z,84.64
2022-11-22T21:59:13.636Z,84.65
2022-11-22T22:01:41.564Z,84.63
2022-11-22T22:04:09.585Z,84.65
2022-11-22T22:06:37.467Z,84.65
2022-11-22T22:09:07.502Z,84.56
2022-11-22T22:11:35.418Z,84.63
2022-11-22T22:14:03.323Z,84.79
2022-11-22T22:16:31.260Z,84.75
2022-11-22T22:19:03.381Z,84.87
2022-11-22T22:21:33.730Z,84.54
2022-11-22T22:24:06.742Z,84.72
2022-11-22T22:26:34.623Z,84.62
2022-11-22T22:29:02.627Z,85.16
2022-11-22T22:31:33.838Z,85.40
2022-11-22T22:34:03.342Z,85.07
2022-11-22T22:36:31.310Z,85.32
2022-11-22T22:38:59.223Z,85.15
2022-11-22T22:41:27.178Z,85.19
2022-11-22T22:43:57.972Z,84.84
2022-11-22T22:46:26.078Z,85.05
2022-11-22T22:48:57.123Z,84.96
2022-11-22T22:51:32.950Z,84.98
2022-11-22T22:54:04.281Z,85.41
2022-11-22T22:56:32.458Z,85.36
2022-11-22T22:59:02.258Z,85.35
2022-11-22T23:01:31.469Z,85.48
2022-11-22T23:04:04.589Z,85.40
2022-11-22T23:06:37.335Z,85.35
2022-11-22T23:13:06.038Z,85.10
2022-11-22T23:15:57.422Z,85.28
2022-11-22T23:18:36.541Z,85.43
2022-11-22T23:21:16.035Z,85.17
2022-11-22T23:24:08.904Z,85.17
2022-11-22T23:26:42.485Z,85.04
2022-11-22T23:29:17.006Z,85.30
2022-11-22T23:31:50.407Z,85.47
2022-11-22T23:34:23.046Z,85.59
2022-11-22T23:36:50.955Z,85.49
2022-11-22T23:39:25.014Z,85.51
2022-11-22T23:42:00.547Z,85.42
2022-11-22T23:44:29.408Z,85.21
2022-11-22T23:46:57.289Z,85.35
2022-11-22T23:49:25.208Z,85.27
2022-11-22T23:51:53.098Z,85.16
2022-11-22T23:54:21.019Z,85.00
2022-11-22T23:56:48.957Z,85.19
2022-11-22T23:59:18.455Z,85.38
